Time;durP1;ratioP1;P1;durP2;ratioP2;P2;SDS_P1;SDS_P2;PMS_P1;PMS_P2;Temp;Humidity;BMP_temperature;BMP_pressure;BME280_temperature;BME280_humidity;BME280_pressure;Samples;Min_cycle;Max_cycle;Signal;HPM_P1;HPM_P2
2022/05/24 00:00:56;;;;;;;10.40;3.80;;;;;;;9.18;84.17;99359.08;105119;1271;73982;-64
2022/05/24 00:03:43;;;;;;;12.60;4.10;;;;;;;9.15;84.06;99351.89;105072;1270;69584;-69
2022/05/24 00:06:31;;;;;;;9.50;3.90;;;;;;;9.13;83.87;99350.70;104804;1274;73340;-65
2022/05/24 00:09:18;;;;;;;9.40;4.30;;;;;;;9.10;83.84;99347.93;104762;1272;59858;-67
2022/05/24 00:12:05;;;;;;;9.00;3.90;;;;;;;9.09;83.94;99346.60;104896;1274;59715;-66
2022/05/24 00:18:12;;;;;;;8.60;3.80;;;;;;;9.10;83.43;99340.48;105031;1274;69709;-66
2022/05/24 00:21:04;;;;;;;11.60;4.20;;;;;;;9.13;83.26;99338.85;104816;1274;73387;-66
2022/05/24 00:23:51;;;;;;;10.40;4.30;;;;;;;9.14;83.00;99334.64;104812;1271;60961;-67
2022/05/24 00:26:40;;;;;;;8.60;3.90;;;;;;;9.18;82.81;99335.38;105098;1271;59411;-67
2022/05/24 00:29:28;;;;;;;10.00;3.80;;;;;;;9.24;82.18;99330.89;105327;1271;72875;-65
2022/05/24 00:32:15;;;;;;;10.10;4.10;;;;;;;9.27;81.89;99326.66;104824;1274;68709;-65
2022/05/24 00:35:04;;;;;;;9.10;3.80;;;;;;;9.30;81.83;99323.57;105245;1271;73318;-65
2022/05/24 00:37:52;;;;;;;9.00;3.70;;;;;;;9.32;81.43;99322.73;104667;1275;59867;-66
2022/05/24 00:40:44;;;;;;;10.30;3.70;;;;;;;9.34;81.21;99331.03;104783;1274;59432;-65
2022/05/24 00:43:41;;;;;;;10.00;4.30;;;;;;;9.35;80.90;99326.89;104892;1271;73218;-65
2022/05/24 00:46:35;;;;;;;9.50;3.80;;;;;;;9.36;81.35;99322.71;104726;1272;68500;-66
2022/05/24 00:49:49;;;;;;;10.70;4.80;;;;;;;9.40;80.88;99323.16;105115;1271;74345;-66
2022/05/24 00:52:41;;;;;;;9.60;4.00;;;;;;;9.42;80.51;99320.19;104979;1274;60207;-65
2022/05/24 00:55:40;;;;;;;10.00;4.00;;;;;;;9.43;80.32;99320.21;104947;1272;60461;-66
2022/05/24 00:58:55;;;;;;;11.50;4.00;;;;;;;9.44;80.25;99316.96;104918;1272;73357;-64
2022/05/24 01:01:47;;;;;;;11.10;4.50;;;;;;;9.44;80.07;99312.88;105241;1271;67445;-65
2022/05/24 01:04:34;;;;;;;14.40;4.30;;;;;;;9.43;80.06;99309.59;104759;1274;72918;-65
2022/05/24 01:07:21;;;;;;;10.40;4.10;;;;;;;9.43;80.00;99303.75;105082;1271;60268;-67
2022/05/24 01:10:14;;;;;;;8.60;4.00;;;;;;;9.41;80.04;99305.52;104997;1274;60400;-66
2022/05/24 01:13:10;;;;;;;13.80;4.50;;;;;;;9.41;79.90;99300.02;104793;1272;72412;-65
2022/05/24 01:15:57;;;;;;;9.90;4.30;;;;;;;9.39;79.75;99297.32;105082;1272;68505;-63
2022/05/24 01:18:44;;;;;;;10.50;4.50;;;;;;;9.40;80.11;99300.33;104903;1271;73290;-65
2022/05/24 01:21:32;;;;;;;10.10;4.50;;;;;;;9.41;79.98;99293.19;104855;1271;59887;-65
2022/05/24 01:24:38;;;;;;;11.00;4.50;;;;;;;9.42;79.77;99292.51;104819;1271;61942;-64
2022/05/24 01:27:25;;;;;;;10.00;4.30;;;;;;;9.43;79.67;99286.73;104982;1271;73994;-64
2022/05/24 01:30:12;;;;;;;8.90;4.20;;;;;;;9.44;79.76;99283.63;105045;1271;68561;-65
2022/05/24 01:36:10;;;;;;;9.80;4.40;;;;;;;9.46;79.41;99281.69;104916;1271;59934;-64
2022/05/24 01:39:01;;;;;;;10.00;4.50;;;;;;;9.45;79.28;99278.64;105022;1274;61030;-64
2022/05/24 01:41:48;;;;;;;9.70;4.50;;;;;;;9.43;79.22;99276.52;104976;1271;73330;-63
2022/05/24 01:44:52;;;;;;;11.10;4.30;;;;;;;9.41;79.32;99274.86;104972;1271;68456;-65
2022/05/24 01:47:42;;;;;;;10.50;3.90;;;;;;;9.39;79.47;99270.78;105171;1271;74385;-65
2022/05/24 01:50:31;;;;;;;9.60;4.40;;;;;;;9.37;79.90;99270.05;104918;1271;59822;-65
2022/05/24 01:53:27;;;;;;;10.20;4.00;;;;;;;9.36;79.93;99269.61;104765;1271;62249;-66
2022/05/24 01:57:20;;;;;;;10.60;4.40;;;;;;;9.36;79.89;99267.86;105001;1274;74341;-65
2022/05/24 02:00:12;;;;;;;11.20;4.10;;;;;;;9.35;80.02;99264.41;104931;1271;69632;-66
2022/05/24 02:03:02;;;;;;;9.60;4.00;;;;;;;9.33;79.96;99256.23;104828;1271;74223;-65
2022/05/24 02:05:50;;;;;;;11.40;4.20;;;;;;;9.31;80.00;99253.59;104905;1271;59324;-66
2022/05/24 02:08:37;;;;;;;10.50;4.70;;;;;;;9.28;80.23;99248.73;105030;1271;59362;-65
2022/05/24 02:11:30;;;;;;;12.40;4.70;;;;;;;9.25;80.51;99249.86;105077;1271;71667;-61
2022/05/24 02:14:22;;;;;;;12.00;4.60;;;;;;;9.21;80.47;99242.02;104857;1271;68414;-64
2022/05/24 02:17:17;;;;;;;10.10;4.50;;;;;;;9.18;80.75;99240.70;104840;1271;74496;-67
2022/05/24 02:20:05;;;;;;;8.50;4.00;;;;;;;9.15;80.77;99242.40;104208;1271;1003726;-66
2022/05/24 02:22:51;;;;;;;9.70;5.00;;;;;;;9.12;80.86;99241.94;104982;1271;61181;-64
2022/05/24 02:25:54;;;;;;;10.20;4.80;;;;;;;9.09;80.99;99236.20;105041;1271;71956;-63
2022/05/24 02:28:42;;;;;;;9.90;4.60;;;;;;;9.05;81.35;99239.17;105162;1271;68482;-63
2022/05/24 02:31:29;;;;;;;10.20;4.20;;;;;;;9.03;81.32;99237.17;105233;1271;74463;-64
2022/05/24 02:34:15;;;;;;;9.80;4.60;;;;;;;8.99;81.18;99232.15;104934;1271;59928;-64
2022/05/24 02:37:04;;;;;;;10.40;4.70;;;;;;;8.98;81.79;99231.42;104888;1272;60455;-65
2022/05/24 02:42:57;;;;;;;9.40;4.70;;;;;;;8.98;81.77;99224.89;105328;1271;66821;-67
2022/05/24 02:45:44;;;;;;;11.40;4.90;;;;;;;8.99;81.88;99217.72;104797;1271;73285;-62
2022/05/24 02:48:31;;;;;;;10.50;4.60;;;;;;;8.99;81.74;99215.95;104870;1271;59851;-63
2022/05/24 02:51:19;;;;;;;13.30;5.00;;;;;;;8.98;81.65;99215.31;104324;1271;1002971;-62
2022/05/24 02:54:09;;;;;;;11.10;4.70;;;;;;;8.97;81.78;99213.50;104295;1271;1002896;-66
2022/05/24 02:56:55;;;;;;;10.10;4.80;;;;;;;8.98;81.86;99207.93;104992;1271;69869;-65
2022/05/24 02:59:44;;;;;;;12.60;4.80;;;;;;;8.98;81.89;99206.30;105266;1271;73349;-64
2022/05/24 03:02:31;;;;;;;11.80;4.70;;;;;;;9.00;81.92;99207.52;104950;1271;59851;-66
2022/05/24 03:05:20;;;;;;;9.60;4.60;;;;;;;9.02;81.94;99203.82;105115;1271;59295;-65
2022/05/24 03:11:12;;;;;;;12.70;5.50;;;;;;;9.08;81.85;99201.76;105081;1271;69595;-65
2022/05/24 03:14:14;;;;;;;10.40;4.90;;;;;;;9.10;81.67;99198.79;104915;1271;74382;-67
2022/05/24 03:17:00;;;;;;;10.50;4.90;;;;;;;9.12;81.84;99199.46;105054;1271;61455;-65
2022/05/24 03:19:48;;;;;;;10.50;4.90;;;;;;;9.12;81.71;99195.77;105250;1271;60911;-67
2022/05/24 03:22:35;;;;;;;10.30;5.00;;;;;;;9.17;81.55;99199.34;105087;1271;71116;-64
2022/05/24 03:25:23;;;;;;;12.10;4.70;;;;;;;9.21;81.47;99200.29;105161;1271;69547;-67
2022/05/24 03:28:10;;;;;;;10.60;4.50;;;;;;;9.25;81.37;99199.42;105064;1271;72190;-65
2022/05/24 03:30:57;;;;;;;9.80;5.20;;;;;;;9.29;81.13;99198.38;105074;1271;59305;-66
2022/05/24 03:33:43;;;;;;;11.10;4.80;;;;;;;9.33;81.21;99196.80;105121;1271;59406;-65
2022/05/24 03:36:31;;;;;;;10.80;5.00;;;;;;;9.36;80.97;99198.13;104973;1271;73849;-64
2022/05/24 03:39:17;;;;;;;12.60;5.00;;;;;;;9.41;80.85;99203.59;105059;1271;68412;-63
2022/05/24 03:42:06;;;;;;;11.50;4.70;;;;;;;9.47;80.71;99203.58;105023;1271;74754;-65
2022/05/24 03:44:52;;;;;;;9.10;4.90;;;;;;;9.51;80.47;99200.13;104245;1271;1003802;-67
2022/05/24 03:47:39;;;;;;;10.70;5.20;;;;;;;9.58;80.36;99197.83;105113;1271;60874;-66
2022/05/24 03:50:26;;;;;;;12.70;5.30;;;;;;;9.64;80.03;99200.69;105252;1271;72882;-68
2022/05/24 03:53:12;;;;;;;10.30;5.10;;;;;;;9.71;79.59;99197.15;104955;1271;67400;-67
2022/05/24 03:55:59;;;;;;;9.90;4.80;;;;;;;9.79;79.48;99197.92;105362;1271;74778;-67
2022/05/24 03:58:45;;;;;;;9.50;5.10;;;;;;;9.87;78.98;99196.70;105209;1270;59787;-67
2022/05/24 04:01:33;;;;;;;11.70;5.20;;;;;;;9.95;78.67;99190.53;105034;1270;62282;-67
2022/05/24 04:04:20;;;;;;;12.50;5.50;;;;;;;10.05;78.43;99186.95;104943;1271;73903;-66
2022/05/24 04:07:07;;;;;;;10.30;4.90;;;;;;;10.16;78.16;99185.05;105161;1271;69377;-66
2022/05/24 04:09:54;;;;;;;10.40;5.20;;;;;;;10.27;77.78;99181.95;105062;1271;73725;-67
2022/05/24 04:12:40;;;;;;;10.40;5.30;;;;;;;10.40;76.85;99185.61;105015;1271;59356;-65
2022/05/24 04:15:27;;;;;;;10.00;5.70;;;;;;;10.52;76.19;99183.62;105061;1271;61998;-65
2022/05/24 04:18:14;;;;;;;12.40;5.40;;;;;;;10.66;75.75;99189.95;105747;1271;72919;-64
2022/05/24 04:21:01;;;;;;;12.00;5.30;;;;;;;10.80;75.01;99190.69;105031;1271;68713;-64
2022/05/24 04:23:48;;;;;;;10.10;5.50;;;;;;;10.95;74.27;99183.63;104635;1274;73084;-64
2022/05/24 04:26:34;;;;;;;10.00;5.00;;;;;;;11.10;73.62;99181.30;104938;1271;59927;-63
2022/05/24 04:29:21;;;;;;;11.30;5.20;;;;;;;11.26;73.12;99177.55;104147;1271;1003122;-65
2022/05/24 04:32:09;;;;;;;8.90;5.00;;;;;;;11.42;72.41;99178.47;105041;1271;72101;-63
2022/05/24 04:34:56;;;;;;;10.70;4.80;;;;;;;11.60;71.55;99171.42;105112;1271;68558;-63
2022/05/24 04:37:42;;;;;;;13.80;5.70;;;;;;;11.79;70.82;99168.39;104972;1271;70693;-63
2022/05/24 04:43:34;;;;;;;10.30;4.90;;;;;;;12.35;68.87;99172.38;104867;1271;61005;-63
2022/05/24 04:46:20;;;;;;;10.60;5.00;;;;;;;12.85;67.69;99166.17;104927;1271;73855;-63
2022/05/24 04:49:07;;;;;;;10.50;5.50;;;;;;;13.50;64.88;99165.27;104950;1271;70092;-64
2022/05/24 04:51:54;;;;;;;10.70;4.30;;;;;;;14.23;62.90;99162.36;105104;1271;73410;-62
2022/05/24 04:54:45;;;;;;;11.50;4.60;;;;;;;14.98;61.16;99165.89;105143;1271;59317;-65
2022/05/24 04:57:32;;;;;;;10.00;4.50;;;;;;;15.60;57.34;99164.17;105178;1271;61365;-62
2022/05/24 05:00:20;;;;;;;10.00;4.30;;;;;;;15.90;55.94;99160.64;105197;1271;74004;-63
2022/05/24 05:03:14;;;;;;;9.00;4.20;;;;;;;16.00;55.15;99159.63;104902;1271;69294;-67
2022/05/24 05:06:01;;;;;;;10.80;4.70;;;;;;;16.15;54.32;99163.52;104777;1271;73385;-62
2022/05/24 05:08:47;;;;;;;11.00;5.20;;;;;;;16.55;53.68;99161.29;104940;1271;59412;-68
2022/05/24 05:11:33;;;;;;;12.30;4.30;;;;;;;16.91;52.26;99157.23;105016;1271;59221;-69
2022/05/24 05:14:20;;;;;;;10.40;5.30;;;;;;;17.24;51.43;99158.32;104946;1271;73905;-66
2022/05/24 05:17:06;;;;;;;10.10;4.70;;;;;;;17.82;48.95;99154.92;104779;1271;446075;-68
2022/05/24 05:19:54;;;;;;;8.80;4.00;;;;;;;18.65;47.57;99154.18;105062;1271;72333;-66
2022/05/24 05:22:42;;;;;;;10.40;4.50;;;;;;;19.56;45.90;99144.20;104990;1271;59567;-66
2022/05/24 05:25:29;;;;;;;11.70;4.00;;;;;;;20.25;43.11;99135.15;105253;1271;60549;-65
2022/05/24 05:28:19;;;;;;;10.10;4.30;;;;;;;20.94;41.35;99130.23;105012;1271;73991;-65
2022/05/24 05:31:17;;;;;;;9.20;3.60;;;;;;;21.67;40.53;99123.73;104935;1271;68671;-66
2022/05/24 05:34:04;;;;;;;9.00;3.60;;;;;;;22.24;38.36;99117.90;105097;1271;74427;-65
2022/05/24 05:36:50;;;;;;;10.70;3.70;;;;;;;22.58;37.38;99113.04;104919;1271;59725;-67
2022/05/24 05:39:37;;;;;;;10.50;4.30;;;;;;;22.91;36.17;99116.19;104908;1271;60377;-66
2022/05/24 05:42:24;;;;;;;7.70;3.40;;;;;;;23.13;35.94;99109.17;105009;1271;73986;-65
2022/05/24 05:45:12;;;;;;;7.50;3.50;;;;;;;23.38;35.09;99110.71;105102;1271;67409;-67
2022/05/24 05:47:58;;;;;;;7.80;3.30;;;;;;;23.51;35.32;99109.40;105280;1271;72134;-67
2022/05/24 05:50:47;;;;;;;9.90;3.40;;;;;;;23.52;34.69;99106.92;104976;1271;59666;-66
2022/05/24 05:53:33;;;;;;;9.80;3.70;;;;;;;23.32;34.82;99103.95;105361;1271;60328;-68
2022/05/24 05:56:22;;;;;;;8.60;3.40;;;;;;;23.18;34.95;99093.83;105153;1271;72945;-68
2022/05/24 05:59:09;;;;;;;9.70;3.90;;;;;;;23.07;34.77;99094.45;104992;1270;68613;-67
2022/05/24 06:01:58;;;;;;;10.20;3.30;;;;;;;23.16;35.29;99098.11;105044;1271;73841;-67
2022/05/24 06:04:44;;;;;;;8.50;3.30;;;;;;;23.46;34.23;99105.25;105068;1271;59356;-67
2022/05/24 06:07:32;;;;;;;11.30;3.40;;;;;;;23.37;34.01;99104.93;105033;1270;62043;-66
2022/05/24 06:10:18;;;;;;;8.60;3.40;;;;;;;23.55;33.81;99110.74;105133;1271;73098;-69
2022/05/24 06:13:06;;;;;;;10.40;3.00;;;;;;;23.61;33.54;99104.40;105529;1271;66843;-70
2022/05/24 06:15:55;;;;;;;10.80;3.50;;;;;;;23.53;33.93;99104.91;104889;1271;74455;-68
2022/05/24 06:18:42;;;;;;;10.60;3.60;;;;;;;24.19;33.51;99099.86;105159;1271;59351;-71
2022/05/24 06:21:33;;;;;;;9.20;3.40;;;;;;;25.01;32.11;99097.96;105091;1271;62333;-73
2022/05/24 06:24:19;;;;;;;9.60;3.30;;;;;;;25.12;30.99;99103.00;105233;1271;73837;-70
2022/05/24 06:27:06;;;;;;;8.40;3.20;;;;;;;25.34;30.44;99100.00;104942;1271;68553;-69
2022/05/24 06:29:52;;;;;;;7.00;3.00;;;;;;;25.93;30.05;99095.04;105015;1270;72381;-66
2022/05/24 06:32:39;;;;;;;7.30;2.80;;;;;;;26.37;29.31;99089.59;104804;1271;59431;-69
2022/05/24 06:35:29;;;;;;;8.00;3.00;;;;;;;26.39;28.92;99094.13;105006;1271;60931;-71
2022/05/24 06:38:16;;;;;;;8.60;3.00;;;;;;;26.25;28.75;99096.38;104944;1271;72880;-69
2022/05/24 06:41:04;;;;;;;8.90;2.80;;;;;;;26.64;28.69;99082.59;105018;1271;69395;-71
2022/05/24 06:43:51;;;;;;;9.40;3.00;;;;;;;26.83;27.72;99089.18;105039;1271;73062;-68
2022/05/24 06:46:37;;;;;;;13.10;3.40;;;;;;;26.78;27.77;99076.05;105209;1271;59176;-71
2022/05/24 06:49:24;;;;;;;7.40;3.00;;;;;;;27.04;27.84;99073.00;104947;1271;61935;-67
2022/05/24 06:52:11;;;;;;;8.70;3.20;;;;;;;27.13;27.64;99077.05;104843;1271;72926;-68
2022/05/24 06:55:00;;;;;;;11.30;3.10;;;;;;;27.71;27.30;99075.55;105041;1271;67252;-70
2022/05/24 06:57:48;;;;;;;7.30;3.40;;;;;;;28.13;26.68;99067.92;104814;1273;74334;-67
2022/05/24 07:03:42;;;;;;;8.30;3.40;;;;;;;28.57;26.05;99064.61;105286;1271;60658;-69
2022/05/24 07:06:34;;;;;;;9.10;3.70;;;;;;;28.81;26.23;99063.64;105170;1271;72835;-72
2022/05/24 07:09:23;;;;;;;10.80;3.50;;;;;;;28.87;25.68;99066.45;104988;1271;69823;-70
2022/05/24 07:12:10;;;;;;;8.00;3.50;;;;;;;28.49;26.19;99056.67;104942;1271;73258;-67
2022/05/24 07:14:58;;;;;;;9.10;3.30;;;;;;;28.84;25.92;99051.85;105015;1271;59492;-67
2022/05/24 07:17:44;;;;;;;10.00;3.50;;;;;;;28.66;25.77;99047.73;104896;1271;59262;-68
2022/05/24 07:20:36;;;;;;;8.50;3.40;;;;;;;28.74;25.61;99043.19;105075;1271;72857;-69
2022/05/24 07:23:24;;;;;;;7.90;2.80;;;;;;;28.60;25.58;99040.55;104881;1271;69734;-72
2022/05/24 07:26:18;;;;;;;9.10;2.80;;;;;;;29.00;25.39;99039.61;104998;1271;71868;-70
2022/05/24 07:29:25;;;;;;;7.40;2.70;;;;;;;29.20;24.60;99036.71;104855;1271;59375;-70
2022/05/24 07:32:12;;;;;;;9.10;3.20;;;;;;;29.22;24.30;99036.67;105063;1271;59412;-70
2022/05/24 07:34:59;;;;;;;10.10;2.90;;;;;;;28.57;24.49;99039.48;104847;1273;72559;-69
2022/05/24 07:37:46;;;;;;;10.30;3.00;;;;;;;28.27;24.94;99024.48;105056;1271;68011;-70
2022/05/24 07:46:52;;;;;;;10.40;2.90;;;;;;;25.61;28.26;99049.01;105160;1271;60391;-69
2022/05/24 07:49:38;;;;;;;12.20;2.90;;;;;;;24.44;29.67;99044.81;105028;1271;73843;-69
2022/05/24 07:52:25;;;;;;;9.20;2.80;;;;;;;23.70;30.66;99044.20;105071;1271;68861;-69
2022/05/24 07:55:12;;;;;;;10.80;3.50;;;;;;;23.61;30.94;99038.43;105005;1271;72280;-68
2022/05/24 07:57:59;;;;;;;9.50;3.30;;;;;;;24.06;30.88;99028.60;104919;1271;59416;-68
2022/05/24 08:00:45;;;;;;;9.50;3.10;;;;;;;24.76;30.29;99024.95;104959;1271;61984;-67
2022/05/24 08:03:31;;;;;;;9.80;2.90;;;;;;;25.89;29.35;99022.75;105016;1271;74007;-70
2022/05/24 08:06:18;;;;;;;8.20;2.90;;;;;;;26.93;27.91;99025.00;104929;1271;67607;-68
2022/05/24 08:09:05;;;;;;;8.10;3.00;;;;;;;27.21;26.97;99018.67;105005;1271;71710;-69
2022/05/24 08:11:52;;;;;;;10.60;2.80;;;;;;;26.60;27.18;99014.10;105152;1271;59444;-71
2022/05/24 08:14:38;;;;;;;7.90;2.40;;;;;;;26.20;27.87;99007.44;104938;1271;61132;-68
2022/05/24 08:17:25;;;;;;;10.10;2.90;;;;;;;25.86;28.13;99009.45;105229;1271;74255;-68
2022/05/24 08:20:13;;;;;;;8.50;2.60;;;;;;;25.47;27.87;99021.36;105023;1271;68637;-69
2022/05/24 08:23:00;;;;;;;9.30;2.50;;;;;;;25.29;27.60;99021.38;104980;1271;72992;-67
2022/05/24 08:25:47;;;;;;;8.40;2.70;;;;;;;25.32;27.59;99012.02;105011;1271;59346;-68
2022/05/24 08:28:34;;;;;;;8.30;2.60;;;;;;;25.52;27.10;99020.71;104908;1271;62198;-68
2022/05/24 08:31:26;;;;;;;9.00;2.70;;;;;;;25.55;27.30;99014.54;105230;1271;73961;-69
2022/05/24 08:34:14;;;;;;;9.50;2.60;;;;;;;25.86;27.00;99011.41;105019;1271;69668;-69
2022/05/24 08:37:00;;;;;;;9.70;2.60;;;;;;;25.52;27.64;99011.98;104980;1271;72904;-69
2022/05/24 08:39:47;;;;;;;11.40;2.90;;;;;;;25.33;28.27;99017.12;104776;1271;59651;-69
2022/05/24 08:42:50;;;;;;;10.10;2.60;;;;;;;25.25;28.14;99013.17;105112;1271;61337;-68
2022/05/24 08:49:22;;;;;;;6.60;2.40;;;;;;;26.42;27.19;99005.96;104951;1271;69459;-72
2022/05/24 08:52:09;;;;;;;7.40;2.20;;;;;;;27.04;26.05;99009.05;105362;1271;72481;-68
2022/05/24 08:54:58;;;;;;;7.80;2.40;;;;;;;27.32;25.06;99001.70;105002;1271;59341;-69
2022/05/24 08:57:59;;;;;;;10.10;3.10;;;;;;;26.77;25.19;99011.44;104895;1271;59393;-69
2022/05/24 09:00:46;;;;;;;8.30;2.40;;;;;;;26.00;26.50;99003.98;105052;1271;71665;-69
2022/05/24 09:03:33;;;;;;;7.60;2.20;;;;;;;25.71;27.29;99000.52;104971;1271;66668;-68
2022/05/24 09:07:04;;;;;;;9.90;2.20;;;;;;;25.88;27.11;99000.91;105392;1271;74332;-68
2022/05/24 09:09:59;;;;;;;6.40;2.30;;;;;;;25.41;27.41;98995.98;104942;1271;59198;-69
2022/05/24 09:13:37;;;;;;;7.30;2.40;;;;;;;25.19;28.05;98991.10;105337;1271;61875;-68
2022/05/24 09:16:51;;;;;;;6.90;2.20;;;;;;;25.16;28.35;98989.52;105340;1271;73159;-68
2022/05/24 09:19:45;;;;;;;7.50;2.60;;;;;;;25.55;28.58;98990.80;104950;1271;69881;-69
2022/05/24 09:22:35;;;;;;;11.40;2.70;;;;;;;25.89;28.11;98984.16;104882;1270;73380;-70
2022/05/24 09:25:21;;;;;;;8.60;2.80;;;;;;;25.75;28.13;98996.33;105178;1271;59317;-70
2022/05/24 09:28:08;;;;;;;9.70;2.00;;;;;;;24.67;28.65;99006.58;104958;1271;60366;-68
2022/05/24 09:30:57;;;;;;;7.90;2.20;;;;;;;24.03;29.39;98995.92;104907;1271;72039;-69
2022/05/24 09:33:44;;;;;;;6.50;2.30;;;;;;;23.60;29.33;99006.58;104820;1271;68810;-67
2022/05/24 09:36:51;;;;;;;10.40;2.50;;;;;;;23.62;29.28;99004.96;104882;1271;73089;-67
2022/05/24 09:39:42;;;;;;;10.00;2.00;;;;;;;23.41;29.73;98995.80;104991;1271;59393;-69
2022/05/24 09:42:33;;;;;;;8.10;2.60;;;;;;;23.57;29.65;98998.89;105305;1271;60556;-68
2022/05/24 09:45:26;;;;;;;10.30;2.40;;;;;;;23.30;30.19;98996.11;105197;1271;70693;-71
2022/05/24 09:48:23;;;;;;;8.60;2.30;;;;;;;23.23;30.47;99003.52;105068;1271;69639;-69
2022/05/24 09:51:12;;;;;;;6.80;2.10;;;;;;;23.09;29.96;99012.52;105037;1271;74797;-70
2022/05/24 09:53:58;;;;;;;10.20;2.80;;;;;;;22.80;29.70;99021.42;104901;1274;59410;-70
2022/05/24 09:57:10;;;;;;;7.20;2.40;;;;;;;22.73;30.25;99014.27;104893;1271;60572;-68
2022/05/24 10:00:04;;;;;;;7.50;1.90;;;;;;;22.98;30.27;99000.31;105429;1271;73365;-69
2022/05/24 10:03:06;;;;;;;7.20;2.10;;;;;;;22.86;30.64;98993.89;104860;1270;69379;-69
2022/05/24 10:06:26;;;;;;;11.20;2.00;;;;;;;22.73;31.09;98990.78;104955;1271;74318;-68
2022/05/24 10:09:18;;;;;;;10.80;2.40;;;;;;;22.58;31.55;99001.40;105079;1271;59403;-63
2022/05/24 10:12:22;;;;;;;7.40;2.10;;;;;;;22.39;32.05;98989.52;105063;1269;60850;-68
2022/05/24 10:15:29;;;;;;;8.40;2.70;;;;;;;22.09;32.54;98990.70;105099;1271;72895;-70
2022/05/24 10:18:38;;;;;;;7.60;2.50;;;;;;;21.65;33.39;98987.52;104983;1271;69665;-67
2022/05/24 10:21:39;;;;;;;8.40;2.40;;;;;;;21.33;33.94;99005.39;105271;1271;73302;-68
2022/05/24 10:24:45;;;;;;;9.10;2.40;;;;;;;20.74;34.94;99000.60;105049;1271;59224;-69
2022/05/24 10:27:49;;;;;;;7.80;2.30;;;;;;;20.46;35.82;99000.20;105046;1271;60660;-66
2022/05/24 10:30:50;;;;;;;10.00;2.70;;;;;;;20.09;36.54;99001.60;104782;1271;72985;-67
2022/05/24 10:40:37;;;;;;;10.80;3.00;;;;;;;19.36;39.71;98999.36;105747;1271;59285;-69
2022/05/24 10:43:51;;;;;;;9.70;2.60;;;;;;;19.10;40.80;98992.46;105240;1271;61246;-69
2022/05/24 10:46:53;;;;;;;9.30;2.70;;;;;;;18.90;40.37;98991.69;105207;1270;71990;-71
2022/05/24 10:50:06;;;;;;;9.20;3.10;;;;;;;18.91;40.50;99002.17;105152;1271;69459;-68
2022/05/24 10:53:34;;;;;;;9.10;2.90;;;;;;;19.04;40.27;99000.62;105040;1271;72576;-62
2022/05/24 10:56:37;;;;;;;8.60;2.80;;;;;;;19.25;40.07;98998.27;105505;1271;59763;-64
2022/05/24 10:59:42;;;;;;;11.30;2.50;;;;;;;19.30;39.74;99001.16;105044;1271;60298;-69
2022/05/24 11:02:43;;;;;;;9.10;2.80;;;;;;;19.36;39.58;98996.82;104893;1271;73935;-67
2022/05/24 11:05:55;;;;;;;10.60;3.10;;;;;;;19.36;39.55;98994.29;104854;1271;68530;-64
2022/05/24 11:09:05;;;;;;;7.60;2.50;;;;;;;19.41;39.36;98983.55;104969;1271;72307;-64
2022/05/24 11:12:12;;;;;;;9.10;2.50;;;;;;;19.54;39.41;98990.48;104821;1271;59319;-71
2022/05/24 11:15:47;;;;;;;8.60;2.50;;;;;;;19.53;39.05;98988.65;104888;1271;59463;-73
2022/05/24 11:18:40;;;;;;;7.20;2.60;;;;;;;19.45;39.54;98980.95;105201;1270;71917;-72
2022/05/24 11:21:39;;;;;;;7.90;2.40;;;;;;;19.53;39.43;98987.16;104835;1271;67010;-72
2022/05/24 11:24:39;;;;;;;8.30;2.80;;;;;;;19.50;39.36;98990.09;105091;1271;73896;-76
2022/05/24 11:27:31;;;;;;;10.10;2.50;;;;;;;19.48;39.05;98988.59;105269;1271;59279;-74
2022/05/24 11:30:28;;;;;;;7.90;2.50;;;;;;;19.36;39.60;98991.96;105092;1271;60878;-73
2022/05/24 11:33:42;;;;;;;8.40;3.20;;;;;;;19.08;40.65;99006.42;104944;1271;73946;-72
2022/05/24 11:36:37;;;;;;;8.30;2.40;;;;;;;18.78;42.34;99000.14;105172;1271;70146;-71
2022/05/24 11:39:29;;;;;;;8.90;2.60;;;;;;;18.46;43.58;98997.75;105021;1271;73214;-69
2022/05/24 11:42:46;;;;;;;8.20;2.50;;;;;;;18.28;44.11;98992.92;104881;1271;59198;-68
2022/05/24 11:45:32;;;;;;;10.20;3.00;;;;;;;18.17;44.64;98998.80;104843;1271;62082;-68
2022/05/24 11:48:19;;;;;;;8.90;2.70;;;;;;;18.12;45.07;98995.45;105473;1271;73851;-71
2022/05/24 11:51:32;;;;;;;8.00;2.80;;;;;;;18.13;45.84;99000.75;104930;1271;69484;-69
2022/05/24 11:54:21;;;;;;;7.90;2.80;;;;;;;18.05;47.15;98998.23;104914;1271;74475;-68
2022/05/24 11:57:07;;;;;;;12.10;2.50;;;;;;;17.91;47.75;99001.33;105279;1271;59352;-67
2022/05/24 11:59:55;;;;;;;10.40;3.00;;;;;;;17.76;47.79;99001.02;105054;1271;60593;-68
2022/05/24 12:09:22;;;;;;;8.60;2.60;;;;;;;17.67;45.09;99012.27;105344;1271;73263;-69
2022/05/24 12:12:35;;;;;;;8.00;2.30;;;;;;;17.74;44.79;99008.45;105025;1271;59391;-69
2022/05/24 12:15:30;;;;;;;11.30;2.50;;;;;;;17.83;44.65;99008.38;105005;1271;61645;-69
2022/05/24 12:18:25;;;;;;;10.30;2.50;;;;;;;17.90;44.92;99002.16;105078;1271;73902;-69
2022/05/24 12:21:55;;;;;;;9.50;2.50;;;;;;;17.95;44.90;99003.91;105142;1271;67935;-68
2022/05/24 12:24:50;;;;;;;10.40;2.60;;;;;;;17.94;45.25;99013.18;104948;1271;72234;-69
2022/05/24 12:27:49;;;;;;;10.60;3.00;;;;;;;17.90;45.81;99015.38;104971;1271;59317;-68
2022/05/24 12:30:41;;;;;;;8.00;2.50;;;;;;;17.83;46.58;99011.61;105252;1271;59326;-67
2022/05/24 12:33:37;;;;;;;11.10;2.50;;;;;;;17.78;46.91;99010.30;105248;1271;74111;-67
2022/05/24 12:36:31;;;;;;;10.30;3.10;;;;;;;17.70;47.89;99011.64;105237;1271;68745;-69
2022/05/24 12:39:38;;;;;;;8.30;2.80;;;;;;;17.59;49.84;99015.86;104796;1274;72514;-70
2022/05/24 12:42:24;;;;;;;10.70;3.20;;;;;;;17.41;51.72;99018.63;104966;1271;59295;-71
2022/05/24 12:45:20;;;;;;;9.20;3.20;;;;;;;17.26;53.10;99018.25;104862;1271;60384;-71
2022/05/24 12:48:24;;;;;;;7.30;2.90;;;;;;;17.10;53.84;99021.15;104823;1271;73040;-69
2022/05/24 12:51:11;;;;;;;11.60;3.10;;;;;;;16.97;54.46;99024.05;105282;1271;68016;-69
2022/05/24 12:54:14;;;;;;;7.90;2.90;;;;;;;16.83;55.74;99022.52;104968;1271;71935;-70
2022/05/24 12:57:13;;;;;;;8.80;3.00;;;;;;;16.67;56.42;99024.05;105385;1271;59197;-70
2022/05/24 13:00:37;;;;;;;9.80;3.00;;;;;;;16.58;57.12;99022.23;104955;1271;61774;-70
2022/05/24 13:03:24;;;;;;;7.20;2.60;;;;;;;16.48;58.47;99028.44;104912;1271;74005;-71
2022/05/24 13:06:29;;;;;;;8.40;2.60;;;;;;;16.42;59.00;99029.30;104875;1271;67783;-69
2022/05/24 13:09:28;;;;;;;7.30;2.80;;;;;;;16.40;59.77;99036.75;104982;1271;72283;-71
2022/05/24 13:12:16;;;;;;;10.40;3.00;;;;;;;16.36;60.05;99046.75;105092;1271;59272;-69
2022/05/24 13:15:08;;;;;;;9.10;3.60;;;;;;;16.35;60.70;99048.64;105043;1271;60380;-69
2022/05/24 13:18:06;;;;;;;8.90;3.30;;;;;;;16.30;61.17;99054.45;105408;1271;73888;-70
2022/05/24 13:21:01;;;;;;;8.70;3.00;;;;;;;16.21;61.36;99051.34;105073;1271;66651;-69
2022/05/24 13:24:05;;;;;;;7.40;3.20;;;;;;;16.16;61.26;99058.56;104918;1271;73390;-71
2022/05/24 13:27:05;;;;;;;9.50;3.30;;;;;;;16.10;61.18;99053.10;104986;1271;60627;-69
2022/05/24 13:36:41;;;;;;;8.00;3.40;;;;;;;15.78;62.87;99053.48;105208;1271;68637;-68
2022/05/24 13:39:47;;;;;;;10.40;3.30;;;;;;;15.65;63.51;99048.69;104801;1271;73393;-69
2022/05/24 13:42:33;;;;;;;9.30;3.50;;;;;;;15.58;63.93;99044.65;104961;1271;59411;-68
2022/05/24 13:45:28;;;;;;;9.70;3.40;;;;;;;15.55;63.74;99050.19;104939;1271;60363;-68
2022/05/24 13:48:26;;;;;;;9.10;3.80;;;;;;;15.57;63.80;99045.58;104670;1273;73579;-69
2022/05/24 13:51:31;;;;;;;12.20;3.20;;;;;;;15.68;63.68;99047.09;105057;1271;68529;-71
2022/05/24 13:54:37;;;;;;;10.00;3.60;;;;;;;15.88;63.28;99045.35;104950;1271;74522;-69
2022/05/24 13:57:31;;;;;;;11.10;3.60;;;;;;;16.10;62.42;99048.10;105346;1271;59632;-70
2022/05/24 14:00:24;;;;;;;8.80;4.00;;;;;;;16.25;61.70;99041.00;104943;1271;60395;-68
2022/05/24 14:03:54;;;;;;;8.30;3.50;;;;;;;16.38;61.10;99038.38;105154;1271;71573;-67
2022/05/24 14:06:56;;;;;;;9.70;4.00;;;;;;;16.51;60.04;99044.43;104395;1277;69895;-66
2022/05/24 14:09:43;;;;;;;9.20;3.30;;;;;;;16.51;59.41;99043.70;104300;1277;74806;-67
2022/05/24 14:12:30;;;;;;;9.20;3.80;;;;;;;16.50;58.71;99051.70;104297;1277;59759;-68